sensor_id;sensor_type;location;lat;lon;timestamp;temperature;humidity
77693;SHT31;66984;47.404;18.836;2023-03-15T00:00:40;11.00;68.41
77693;SHT31;66984;47.404;18.836;2023-03-15T00:01:43;11.06;68.01
77693;SHT31;66984;47.404;18.836;2023-03-15T00:02:48;11.07;68.10
77693;SHT31;66984;47.404;18.836;2023-03-15T00:03:50;11.04;68.07
77693;SHT31;66984;47.404;18.836;2023-03-15T00:04:53;11.04;68.08
77693;SHT31;66984;47.404;18.836;2023-03-15T00:05:56;11.07;67.87
77693;SHT31;66984;47.404;18.836;2023-03-15T00:06:59;11.00;67.55
77693;SHT31;66984;47.404;18.836;2023-03-15T00:08:02;11.00;67.72
77693;SHT31;66984;47.404;18.836;2023-03-15T00:09:05;11.03;68.06
77693;SHT31;66984;47.404;18.836;2023-03-15T00:10:08;11.00;68.28
77693;SHT31;66984;47.404;18.836;2023-03-15T00:11:13;11.00;67.41
77693;SHT31;66984;47.404;18.836;2023-03-15T00:12:17;10.97;67.62
77693;SHT31;66984;47.404;18.836;2023-03-15T00:13:19;10.96;66.97
77693;SHT31;66984;47.404;18.836;2023-03-15T00:14:22;10.93;67.26
77693;SHT31;66984;47.404;18.836;2023-03-15T00:15:25;10.94;66.70
77693;SHT31;66984;47.404;18.836;2023-03-15T00:16:28;10.93;67.09
77693;SHT31;66984;47.404;18.836;2023-03-15T00:17:30;10.96;66.98
77693;SHT31;66984;47.404;18.836;2023-03-15T00:18:36;10.96;66.85
77693;SHT31;66984;47.404;18.836;2023-03-15T00:19:39;10.99;66.75
77693;SHT31;66984;47.404;18.836;2023-03-15T00:20:41;10.99;66.93
77693;SHT31;66984;47.404;18.836;2023-03-15T00:21:44;10.99;66.94
77693;SHT31;66984;47.404;18.836;2023-03-15T00:22:47;10.97;66.91
77693;SHT31;66984;47.404;18.836;2023-03-15T00:23:50;11.00;66.67
77693;SHT31;66984;47.404;18.836;2023-03-15T00:24:52;11.03;66.53
77693;SHT31;66984;47.404;18.836;2023-03-15T00:25:55;11.01;66.44
77693;SHT31;66984;47.404;18.836;2023-03-15T00:26:58;11.00;66.36
77693;SHT31;66984;47.404;18.836;2023-03-15T00:28:00;10.96;66.54
77693;SHT31;66984;47.404;18.836;2023-03-15T00:29:03;10.99;66.63
77693;SHT31;66984;47.404;18.836;2023-03-15T00:30:07;10.93;66.12
77693;SHT31;66984;47.404;18.836;2023-03-15T00:31:19;10.96;66.06
77693;SHT31;66984;47.404;18.836;2023-03-15T00:32:22;10.92;66.19
77693;SHT31;66984;47.404;18.836;2023-03-15T00:33:24;10.92;65.94
77693;SHT31;66984;47.404;18.836;2023-03-15T00:34:27;10.92;65.89
77693;SHT31;66984;47.404;18.836;2023-03-15T00:35:31;10.90;65.83
77693;SHT31;66984;47.404;18.836;2023-03-15T00:36:35;10.84;65.44
77693;SHT31;66984;47.404;18.836;2023-03-15T00:37:38;10.87;65.70
77693;SHT31;66984;47.404;18.836;2023-03-15T00:38:42;10.84;65.79
77693;SHT31;66984;47.404;18.836;2023-03-15T00:39:48;10.80;65.59
77693;SHT31;66984;47.404;18.836;2023-03-15T00:40:50;10.76;65.46
77693;SHT31;66984;47.404;18.836;2023-03-15T00:41:53;10.81;65.18
77693;SHT31;66984;47.404;18.836;2023-03-15T00:42:58;10.77;64.92
77693;SHT31;66984;47.404;18.836;2023-03-15T00:44:01;10.80;65.34
77693;SHT31;66984;47.404;18.836;2023-03-15T00:45:06;10.73;65.23
77693;SHT31;66984;47.404;18.836;2023-03-15T00:46:09;10.72;65.30
77693;SHT31;66984;47.404;18.836;2023-03-15T00:47:13;10.69;64.84
77693;SHT31;66984;47.404;18.836;2023-03-15T00:48:16;10.67;64.36
77693;SHT31;66984;47.404;18.836;2023-03-15T00:49:18;10.67;64.30
77693;SHT31;66984;47.404;18.836;2023-03-15T00:50:22;10.73;64.21
77693;SHT31;66984;47.404;18.836;2023-03-15T00:51:24;10.69;63.74
77693;SHT31;66984;47.404;18.836;2023-03-15T00:52:33;10.57;63.71
77693;SHT31;66984;47.404;18.836;2023-03-15T00:53:39;10.62;63.91
77693;SHT31;66984;47.404;18.836;2023-03-15T00:54:42;10.65;64.09
77693;SHT31;66984;47.404;18.836;2023-03-15T00:55:45;10.67;64.46
77693;SHT31;66984;47.404;18.836;2023-03-15T00:56:48;10.65;64.13
77693;SHT31;66984;47.404;18.836;2023-03-15T00:57:51;10.65;64.14
77693;SHT31;66984;47.404;18.836;2023-03-15T00:58:54;10.65;63.71
77693;SHT31;66984;47.404;18.836;2023-03-15T00:59:57;10.62;63.68
77693;SHT31;66984;47.404;18.836;2023-03-15T01:00:59;10.60;63.70
77693;SHT31;66984;47.404;18.836;2023-03-15T01:02:04;10.56;63.77
77693;SHT31;66984;47.404;18.836;2023-03-15T01:03:07;10.56;63.71
77693;SHT31;66984;47.404;18.836;2023-03-15T01:04:10;10.57;63.65
77693;SHT31;66984;47.404;18.836;2023-03-15T01:05:16;10.55;63.73
77693;SHT31;66984;47.404;18.836;2023-03-15T01:06:21;10.57;63.71
77693;SHT31;66984;47.404;18.836;2023-03-15T01:07:24;10.57;63.31
77693;SHT31;66984;47.404;18.836;2023-03-15T01:08:27;10.48;63.08
77693;SHT31;66984;47.404;18.836;2023-03-15T01:09:30;10.50;63.71
77693;SHT31;66984;47.404;18.836;2023-03-15T01:10:35;10.52;63.57
77693;SHT31;66984;47.404;18.836;2023-03-15T01:11:38;10.52;63.66
77693;SHT31;66984;47.404;18.836;2023-03-15T01:12:41;10.53;63.12
77693;SHT31;66984;47.404;18.836;2023-03-15T01:13:44;10.55;63.28
77693;SHT31;66984;47.404;18.836;2023-03-15T01:14:47;10.55;63.19
77693;SHT31;66984;47.404;18.836;2023-03-15T01:15:49;10.49;63.15
77693;SHT31;66984;47.404;18.836;2023-03-15T01:16:52;10.45;63.06
77693;SHT31;66984;47.404;18.836;2023-03-15T01:17:55;10.48;62.78
77693;SHT31;66984;47.404;18.836;2023-03-15T01:18:58;10.46;63.36
77693;SHT31;66984;47.404;18.836;2023-03-15T01:20:00;10.45;63.25
77693;SHT31;66984;47.404;18.836;2023-03-15T01:21:08;10.42;62.89
77693;SHT31;66984;47.404;18.836;2023-03-15T01:22:11;10.41;62.88
77693;SHT31;66984;47.404;18.836;2023-03-15T01:23:14;10.39;62.88
77693;SHT31;66984;47.404;18.836;2023-03-15T01:24:16;10.41;63.05
77693;SHT31;66984;47.404;18.836;2023-03-15T01:25:19;10.39;62.99
77693;SHT31;66984;47.404;18.836;2023-03-15T01:26:22;10.39;62.44
77693;SHT31;66984;47.404;18.836;2023-03-15T01:27:25;10.35;62.63
77693;SHT31;66984;47.404;18.836;2023-03-15T01:28:28;10.35;63.03
77693;SHT31;66984;47.404;18.836;2023-03-15T01:29:31;10.35;62.59
77693;SHT31;66984;47.404;18.836;2023-03-15T01:30:33;10.35;62.30
77693;SHT31;66984;47.404;18.836;2023-03-15T01:31:36;10.32;62.34
77693;SHT31;66984;47.404;18.836;2023-03-15T01:32:39;10.31;62.67
77693;SHT31;66984;47.404;18.836;2023-03-15T01:33:42;10.32;62.64
77693;SHT31;66984;47.404;18.836;2023-03-15T01:34:44;10.35;62.77
77693;SHT31;66984;47.404;18.836;2023-03-15T01:35:47;10.28;62.30
77693;SHT31;66984;47.404;18.836;2023-03-15T01:36:51;10.24;62.26
77693;SHT31;66984;47.404;18.836;2023-03-15T01:37:54;10.29;62.41
77693;SHT31;66984;47.404;18.836;2023-03-15T01:38:57;10.28;61.71
77693;SHT31;66984;47.404;18.836;2023-03-15T01:40:00;10.26;61.95
77693;SHT31;66984;47.404;18.836;2023-03-15T01:41:03;10.26;61.85
77693;SHT31;66984;47.404;18.836;2023-03-15T01:42:06;10.26;62.12
77693;SHT31;66984;47.404;18.836;2023-03-15T01:43:21;10.28;62.03
77693;SHT31;66984;47.404;18.836;2023-03-15T01:44:48;10.29;61.93
77693;SHT31;66984;47.404;18.836;2023-03-15T01:46:29;10.31;61.54
77693;SHT31;66984;47.404;18.836;2023-03-15T01:47:35;10.28;61.59
77693;SHT31;66984;47.404;18.836;2023-03-15T01:48:40;10.24;61.60
77693;SHT31;66984;47.404;18.836;2023-03-15T01:49:50;10.24;61.55
77693;SHT31;66984;47.404;18.836;2023-03-15T01:50:56;10.25;61.99
77693;SHT31;66984;47.404;18.836;2023-03-15T01:52:02;10.28;61.64
77693;SHT31;66984;47.404;18.836;2023-03-15T01:53:06;10.25;61.53
77693;SHT31;66984;47.404;18.836;2023-03-15T01:54:25;10.24;61.53
77693;SHT31;66984;47.404;18.836;2023-03-15T01:55:29;10.28;61.82
77693;SHT31;66984;47.404;18.836;2023-03-15T01:56:38;10.24;61.80
77693;SHT31;66984;47.404;18.836;2023-03-15T01:57:50;10.25;61.92
77693;SHT31;66984;47.404;18.836;2023-03-15T01:58:58;10.24;61.86
77693;SHT31;66984;47.404;18.836;2023-03-15T02:00:06;10.18;61.89
77693;SHT31;66984;47.404;18.836;2023-03-15T02:01:14;10.18;62.06
77693;SHT31;66984;47.404;18.836;2023-03-15T02:02:19;10.15;61.97
77693;SHT31;66984;47.404;18.836;2023-03-15T02:03:29;10.18;62.22
77693;SHT31;66984;47.404;18.836;2023-03-15T02:04:37;10.18;62.19
77693;SHT31;66984;47.404;18.836;2023-03-15T02:05:46;10.16;62.50
77693;SHT31;66984;47.404;18.836;2023-03-15T02:06:52;10.19;61.95
77693;SHT31;66984;47.404;18.836;2023-03-15T02:08:01;10.14;61.99
77693;SHT31;66984;47.404;18.836;2023-03-15T02:09:08;10.16;62.27
77693;SHT31;66984;47.404;18.836;2023-03-15T02:10:25;10.14;62.40
77693;SHT31;66984;47.404;18.836;2023-03-15T02:11:28;10.16;62.46
77693;SHT31;66984;47.404;18.836;2023-03-15T02:12:34;10.15;62.52
77693;SHT31;66984;47.404;18.836;2023-03-15T02:13:38;10.14;62.36
77693;SHT31;66984;47.404;18.836;2023-03-15T02:14:41;10.15;62.50
77693;SHT31;66984;47.404;18.836;2023-03-15T02:15:44;10.14;62.47
77693;SHT31;66984;47.404;18.836;2023-03-15T02:16:48;10.05;62.75
77693;SHT31;66984;47.404;18.836;2023-03-15T02:17:51;10.08;62.69
77693;SHT31;66984;47.404;18.836;2023-03-15T02:18:53;10.11;62.65
77693;SHT31;66984;47.404;18.836;2023-03-15T02:21:24;10.09;62.73
77693;SHT31;66984;47.404;18.836;2023-03-15T02:22:52;10.04;62.70
77693;SHT31;66984;47.404;18.836;2023-03-15T02:24:11;10.09;62.84
77693;SHT31;66984;47.404;18.836;2023-03-15T02:25:30;10.05;62.63
77693;SHT31;66984;47.404;18.836;2023-03-15T02:26:41;10.05;62.65
77693;SHT31;66984;47.404;18.836;2023-03-15T02:27:45;10.07;62.49
77693;SHT31;66984;47.404;18.836;2023-03-15T02:28:48;10.05;62.58
77693;SHT31;66984;47.404;18.836;2023-03-15T02:29:52;10.07;62.80
77693;SHT31;66984;47.404;18.836;2023-03-15T02:30:55;10.04;62.86
77693;SHT31;66984;47.404;18.836;2023-03-15T02:31:58;10.08;62.82
77693;SHT31;66984;47.404;18.836;2023-03-15T02:33:04;9.98;62.79
77693;SHT31;66984;47.404;18.836;2023-03-15T02:34:08;9.99;63.01
77693;SHT31;66984;47.404;18.836;2023-03-15T02:35:11;10.02;62.95
77693;SHT31;66984;47.404;18.836;2023-03-15T02:36:19;10.01;62.88
77693;SHT31;66984;47.404;18.836;2023-03-15T02:37:22;9.94;62.96
77693;SHT31;66984;47.404;18.836;2023-03-15T02:38:25;9.97;63.09
77693;SHT31;66984;47.404;18.836;2023-03-15T02:39:28;9.97;63.33
77693;SHT31;66984;47.404;18.836;2023-03-15T02:40:31;9.99;63.20
77693;SHT31;66984;47.404;18.836;2023-03-15T02:41:36;9.93;63.26
77693;SHT31;66984;47.404;18.836;2023-03-15T02:42:41;9.93;63.52
77693;SHT31;66984;47.404;18.836;2023-03-15T02:43:46;9.93;63.63
77693;SHT31;66984;47.404;18.836;2023-03-15T02:44:52;9.95;63.54
77693;SHT31;66984;47.404;18.836;2023-03-15T02:45:56;9.94;63.80
77693;SHT31;66984;47.404;18.836;2023-03-15T02:47:20;9.95;63.95
77693;SHT31;66984;47.404;18.836;2023-03-15T02:48:24;9.97;63.87
77693;SHT31;66984;47.404;18.836;2023-03-15T02:49:30;9.99;63.97
77693;SHT31;66984;47.404;18.836;2023-03-15T02:50:34;9.99;63.84
77693;SHT31;66984;47.404;18.836;2023-03-15T02:51:36;10.01;63.88
77693;SHT31;66984;47.404;18.836;2023-03-15T02:52:39;10.01;63.92
77693;SHT31;66984;47.404;18.836;2023-03-15T02:53:42;10.01;64.00
77693;SHT31;66984;47.404;18.836;2023-03-15T02:54:44;10.04;64.10
77693;SHT31;66984;47.404;18.836;2023-03-15T02:55:47;10.04;64.07
77693;SHT31;66984;47.404;18.836;2023-03-15T02:56:50;10.04;64.13
77693;SHT31;66984;47.404;18.836;2023-03-15T02:57:53;10.04;64.20
77693;SHT31;66984;47.404;18.836;2023-03-15T02:58:56;9.98;64.48
77693;SHT31;66984;47.404;18.836;2023-03-15T02:59:59;9.95;64.49
77693;SHT31;66984;47.404;18.836;2023-03-15T03:01:07;9.93;64.59
77693;SHT31;66984;47.404;18.836;2023-03-15T03:02:11;9.94;64.73
77693;SHT31;66984;47.404;18.836;2023-03-15T03:03:14;9.95;65.00
77693;SHT31;66984;47.404;18.836;2023-03-15T03:04:16;9.97;64.99
77693;SHT31;66984;47.404;18.836;2023-03-15T03:05:20;9.98;64.96
77693;SHT31;66984;47.404;18.836;2023-03-15T03:06:23;9.94;64.89
77693;SHT31;66984;47.404;18.836;2023-03-15T03:07:26;9.93;64.97
77693;SHT31;66984;47.404;18.836;2023-03-15T03:08:28;9.93;65.05
77693;SHT31;66984;47.404;18.836;2023-03-15T03:09:31;9.93;65.10
77693;SHT31;66984;47.404;18.836;2023-03-15T03:10:34;9.94;65.08
77693;SHT31;66984;47.404;18.836;2023-03-15T03:11:37;9.86;64.99
77693;SHT31;66984;47.404;18.836;2023-03-15T03:12:39;9.87;65.08
77693;SHT31;66984;47.404;18.836;2023-03-15T03:13:42;9.90;64.89
77693;SHT31;66984;47.404;18.836;2023-03-15T03:14:45;9.88;64.98
77693;SHT31;66984;47.404;18.836;2023-03-15T03:15:51;9.86;65.11
77693;SHT31;66984;47.404;18.836;2023-03-15T03:17:00;9.81;65.20
77693;SHT31;66984;47.404;18.836;2023-03-15T03:18:03;9.84;65.34
77693;SHT31;66984;47.404;18.836;2023-03-15T03:19:06;9.80;65.34
77693;SHT31;66984;47.404;18.836;2023-03-15T03:20:10;9.87;65.33
77693;SHT31;66984;47.404;18.836;2023-03-15T03:21:14;9.84;65.47
77693;SHT31;66984;47.404;18.836;2023-03-15T03:22:16;9.86;65.48
77693;SHT31;66984;47.404;18.836;2023-03-15T03:23:19;9.90;65.43
77693;SHT31;66984;47.404;18.836;2023-03-15T03:24:22;9.88;65.43
77693;SHT31;66984;47.404;18.836;2023-03-15T03:25:27;9.88;65.33
77693;SHT31;66984;47.404;18.836;2023-03-15T03:26:29;9.87;65.22
77693;SHT31;66984;47.404;18.836;2023-03-15T03:27:34;9.86;64.87
77693;SHT31;66984;47.404;18.836;2023-03-15T03:28:38;9.81;63.54
77693;SHT31;66984;47.404;18.836;2023-03-15T03:29:41;9.81;63.43
77693;SHT31;66984;47.404;18.836;2023-03-15T03:30:43;9.83;63.20
77693;SHT31;66984;47.404;18.836;2023-03-15T03:31:46;9.84;62.92
77693;SHT31;66984;47.404;18.836;2023-03-15T03:32:49;9.83;63.04
77693;SHT31;66984;47.404;18.836;2023-03-15T03:33:54;9.80;62.84
77693;SHT31;66984;47.404;18.836;2023-03-15T03:34:57;9.84;62.60
77693;SHT31;66984;47.404;18.836;2023-03-15T03:36:00;9.86;63.00
77693;SHT31;66984;47.404;18.836;2023-03-15T03:37:03;9.87;62.60
77693;SHT31;66984;47.404;18.836;2023-03-15T03:38:07;9.83;61.92
77693;SHT31;66984;47.404;18.836;2023-03-15T03:39:10;9.84;61.72
77693;SHT31;66984;47.404;18.836;2023-03-15T03:40:13;9.81;61.57
77693;SHT31;66984;47.404;18.836;2023-03-15T03:41:16;9.84;61.60
77693;SHT31;66984;47.404;18.836;2023-03-15T03:42:19;9.81;61.05
77693;SHT31;66984;47.404;18.836;2023-03-15T03:43:21;9.80;61.41
77693;SHT31;66984;47.404;18.836;2023-03-15T03:44:24;9.80;61.58
77693;SHT31;66984;47.404;18.836;2023-03-15T03:45:27;9.77;61.46
77693;SHT31;66984;47.404;18.836;2023-03-15T03:46:29;9.84;61.47
77693;SHT31;66984;47.404;18.836;2023-03-15T03:47:32;9.81;61.81
77693;SHT31;66984;47.404;18.836;2023-03-15T03:48:35;9.81;61.41
77693;SHT31;66984;47.404;18.836;2023-03-15T03:49:38;9.73;61.68
77693;SHT31;66984;47.404;18.836;2023-03-15T03:50:40;9.74;61.53
77693;SHT31;66984;47.404;18.836;2023-03-15T03:51:43;9.71;61.46
77693;SHT31;66984;47.404;18.836;2023-03-15T03:52:46;9.73;61.72
77693;SHT31;66984;47.404;18.836;2023-03-15T03:53:48;9.71;61.23
77693;SHT31;66984;47.404;18.836;2023-03-15T03:54:51;9.71;61.55
77693;SHT31;66984;47.404;18.836;2023-03-15T03:55:54;9.70;61.48
77693;SHT31;66984;47.404;18.836;2023-03-15T03:56:57;9.74;61.37
77693;SHT31;66984;47.404;18.836;2023-03-15T03:58:00;9.76;61.43
77693;SHT31;66984;47.404;18.836;2023-03-15T03:59:02;9.76;61.52
77693;SHT31;66984;47.404;18.836;2023-03-15T04:00:06;9.69;61.40
77693;SHT31;66984;47.404;18.836;2023-03-15T04:01:10;9.70;61.54
77693;SHT31;66984;47.404;18.836;2023-03-15T04:02:13;9.64;61.55
77693;SHT31;66984;47.404;18.836;2023-03-15T04:03:16;9.60;61.84
77693;SHT31;66984;47.404;18.836;2023-03-15T04:04:18;9.61;61.98
77693;SHT31;66984;47.404;18.836;2023-03-15T04:05:21;9.67;61.62
77693;SHT31;66984;47.404;18.836;2023-03-15T04:06:24;9.66;61.67
77693;SHT31;66984;47.404;18.836;2023-03-15T04:07:27;9.67;61.58
77693;SHT31;66984;47.404;18.836;2023-03-15T04:08:29;9.69;61.47
77693;SHT31;66984;47.404;18.836;2023-03-15T04:09:32;9.64;61.16
77693;SHT31;66984;47.404;18.836;2023-03-15T04:10:38;9.64;60.98
77693;SHT31;66984;47.404;18.836;2023-03-15T04:11:42;9.61;60.95
77693;SHT31;66984;47.404;18.836;2023-03-15T04:12:45;9.63;60.74
77693;SHT31;66984;47.404;18.836;2023-03-15T04:13:47;9.58;60.87
77693;SHT31;66984;47.404;18.836;2023-03-15T04:14:50;9.60;60.57
77693;SHT31;66984;47.404;18.836;2023-03-15T04:15:53;9.61;60.65
77693;SHT31;66984;47.404;18.836;2023-03-15T04:17:00;9.54;60.61
77693;SHT31;66984;47.404;18.836;2023-03-15T04:18:05;9.54;60.32
77693;SHT31;66984;47.404;18.836;2023-03-15T04:19:07;9.54;60.04
77693;SHT31;66984;47.404;18.836;2023-03-15T04:20:10;9.46;59.33
77693;SHT31;66984;47.404;18.836;2023-03-15T04:21:14;9.43;59.47
77693;SHT31;66984;47.404;18.836;2023-03-15T04:22:16;9.36;59.00
77693;SHT31;66984;47.404;18.836;2023-03-15T04:23:21;9.35;58.98
77693;SHT31;66984;47.404;18.836;2023-03-15T04:24:24;9.30;58.92
77693;SHT31;66984;47.404;18.836;2023-03-15T04:25:27;9.32;58.91
77693;SHT31;66984;47.404;18.836;2023-03-15T04:26:29;9.30;58.95
77693;SHT31;66984;47.404;18.836;2023-03-15T04:27:32;9.35;59.33
77693;SHT31;66984;47.404;18.836;2023-03-15T04:28:35;9.37;59.19
77693;SHT31;66984;47.404;18.836;2023-03-15T04:29:41;9.36;58.72
77693;SHT31;66984;47.404;18.836;2023-03-15T04:30:46;9.37;58.56
77693;SHT31;66984;47.404;18.836;2023-03-15T04:31:50;9.35;58.57
77693;SHT31;66984;47.404;18.836;2023-03-15T04:32:54;9.30;58.46
77693;SHT31;66984;47.404;18.836;2023-03-15T04:34:04;9.33;58.36
77693;SHT31;66984;47.404;18.836;2023-03-15T04:35:07;9.33;58.48
77693;SHT31;66984;47.404;18.836;2023-03-15T04:36:11;9.35;58.77
77693;SHT31;66984;47.404;18.836;2023-03-15T04:37:19;9.37;58.68
77693;SHT31;66984;47.404;18.836;2023-03-15T04:38:22;9.35;58.88
77693;SHT31;66984;47.404;18.836;2023-03-15T04:39:28;9.23;58.57
77693;SHT31;66984;47.404;18.836;2023-03-15T04:40:31;9.25;58.54
77693;SHT31;66984;47.404;18.836;2023-03-15T04:41:36;9.19;58.66
77693;SHT31;66984;47.404;18.836;2023-03-15T04:42:40;9.15;58.57
77693;SHT31;66984;47.404;18.836;2023-03-15T04:43:44;9.16;58.73
77693;SHT31;66984;47.404;18.836;2023-03-15T04:44:46;9.18;58.57
77693;SHT31;66984;47.404;18.836;2023-03-15T04:45:49;9.19;58.62
77693;SHT31;66984;47.404;18.836;2023-03-15T04:46:53;9.20;58.79
77693;SHT31;66984;47.404;18.836;2023-03-15T04:47:56;9.20;58.65
77693;SHT31;66984;47.404;18.836;2023-03-15T04:48:59;9.19;58.52
77693;SHT31;66984;47.404;18.836;2023-03-15T04:50:03;9.14;58.47
77693;SHT31;66984;47.404;18.836;2023-03-15T04:51:06;9.08;58.48
77693;SHT31;66984;47.404;18.836;2023-03-15T04:52:08;9.12;58.75
77693;SHT31;66984;47.404;18.836;2023-03-15T04:53:11;9.09;58.99
77693;SHT31;66984;47.404;18.836;2023-03-15T04:54:14;9.08;58.56
77693;SHT31;66984;47.404;18.836;2023-03-15T04:55:16;9.08;58.78
77693;SHT31;66984;47.404;18.836;2023-03-15T04:56:19;9.08;58.90
77693;SHT31;66984;47.404;18.836;2023-03-15T04:57:22;9.08;58.95
77693;SHT31;66984;47.404;18.836;2023-03-15T04:58:24;9.07;58.73
77693;SHT31;66984;47.404;18.836;2023-03-15T04:59:27;9.04;58.94
77693;SHT31;66984;47.404;18.836;2023-03-15T05:00:30;8.97;59.20
77693;SHT31;66984;47.404;18.836;2023-03-15T05:01:33;8.92;59.17
77693;SHT31;66984;47.404;18.836;2023-03-15T05:02:35;8.93;59.20
77693;SHT31;66984;47.404;18.836;2023-03-15T05:03:41;8.93;58.91
77693;SHT31;66984;47.404;18.836;2023-03-15T05:04:44;8.93;58.77
77693;SHT31;66984;47.404;18.836;2023-03-15T05:05:46;8.91;58.96
77693;SHT31;66984;47.404;18.836;2023-03-15T05:06:49;8.92;58.97
77693;SHT31;66984;47.404;18.836;2023-03-15T05:07:52;8.88;59.01
77693;SHT31;66984;47.404;18.836;2023-03-15T05:08:55;8.88;58.87
77693;SHT31;66984;47.404;18.836;2023-03-15T05:09:58;8.84;59.22
77693;SHT31;66984;47.404;18.836;2023-03-15T05:11:01;8.82;59.27
77693;SHT31;66984;47.404;18.836;2023-03-15T05:12:05;8.84;59.35
77693;SHT31;66984;47.404;18.836;2023-03-15T05:13:08;8.81;59.37
77693;SHT31;66984;47.404;18.836;2023-03-15T05:14:11;8.81;59.70
77693;SHT31;66984;47.404;18.836;2023-03-15T05:15:13;8.82;59.79
77693;SHT31;66984;47.404;18.836;2023-03-15T05:16:16;8.81;60.07
77693;SHT31;66984;47.404;18.836;2023-03-15T05:17:19;8.79;59.80
77693;SHT31;66984;47.404;18.836;2023-03-15T05:18:23;8.77;59.78
77693;SHT31;66984;47.404;18.836;2023-03-15T05:19:27;8.67;59.69
77693;SHT31;66984;47.404;18.836;2023-03-15T05:20:30;8.63;60.35
77693;SHT31;66984;47.404;18.836;2023-03-15T05:21:33;8.57;60.02
77693;SHT31;66984;47.404;18.836;2023-03-15T05:22:36;8.57;60.00
77693;SHT31;66984;47.404;18.836;2023-03-15T05:23:39;8.50;60.07
77693;SHT31;66984;47.404;18.836;2023-03-15T05:24:43;8.49;60.38
77693;SHT31;66984;47.404;18.836;2023-03-15T05:25:53;8.36;60.50
77693;SHT31;66984;47.404;18.836;2023-03-15T05:26:56;8.39;60.63
77693;SHT31;66984;47.404;18.836;2023-03-15T05:27:59;8.40;60.74
77693;SHT31;66984;47.404;18.836;2023-03-15T05:29:01;8.44;60.69
77693;SHT31;66984;47.404;18.836;2023-03-15T05:30:06;8.39;60.60
77693;SHT31;66984;47.404;18.836;2023-03-15T05:31:09;8.34;60.71
77693;SHT31;66984;47.404;18.836;2023-03-15T05:32:13;8.29;60.84
77693;SHT31;66984;47.404;18.836;2023-03-15T05:33:15;8.23;60.83
77693;SHT31;66984;47.404;18.836;2023-03-15T05:34:18;8.28;60.82
77693;SHT31;66984;47.404;18.836;2023-03-15T05:35:21;8.23;60.92
77693;SHT31;66984;47.404;18.836;2023-03-15T05:36:27;8.12;60.77
77693;SHT31;66984;47.404;18.836;2023-03-15T05:37:30;8.13;61.13
77693;SHT31;66984;47.404;18.836;2023-03-15T05:38:33;8.13;61.28
77693;SHT31;66984;47.404;18.836;2023-03-15T05:39:36;8.07;61.40
77693;SHT31;66984;47.404;18.836;2023-03-15T05:40:43;8.03;61.61
77693;SHT31;66984;47.404;18.836;2023-03-15T05:41:46;8.03;61.75
77693;SHT31;66984;47.404;18.836;2023-03-15T05:42:48;8.05;61.74
77693;SHT31;66984;47.404;18.836;2023-03-15T05:43:51;7.95;61.85
77693;SHT31;66984;47.404;18.836;2023-03-15T05:44:55;7.98;62.19
77693;SHT31;66984;47.404;18.836;2023-03-15T05:45:58;7.99;62.17
77693;SHT31;66984;47.404;18.836;2023-03-15T05:47:01;7.95;62.29
77693;SHT31;66984;47.404;18.836;2023-03-15T05:48:04;7.92;62.37
77693;SHT31;66984;47.404;18.836;2023-03-15T05:49:07;7.95;62.39
77693;SHT31;66984;47.404;18.836;2023-03-15T05:50:10;7.96;62.61
77693;SHT31;66984;47.404;18.836;2023-03-15T05:51:13;7.93;62.47
77693;SHT31;66984;47.404;18.836;2023-03-15T05:52:16;7.95;62.66
77693;SHT31;66984;47.404;18.836;2023-03-15T05:53:18;7.96;62.78
77693;SHT31;66984;47.404;18.836;2023-03-15T05:54:21;7.95;62.68
77693;SHT31;66984;47.404;18.836;2023-03-15T05:55:24;7.95;62.96
77693;SHT31;66984;47.404;18.836;2023-03-15T05:56:27;7.88;62.90
77693;SHT31;66984;47.404;18.836;2023-03-15T05:57:30;7.95;63.09
77693;SHT31;66984;47.404;18.836;2023-03-15T05:58:33;7.85;63.15
77693;SHT31;66984;47.404;18.836;2023-03-15T05:59:35;7.91;63.10
77693;SHT31;66984;47.404;18.836;2023-03-15T06:00:38;7.89;63.36
77693;SHT31;66984;47.404;18.836;2023-03-15T06:01:41;7.89;63.32
77693;SHT31;66984;47.404;18.836;2023-03-15T06:02:45;7.91;63.50
77693;SHT31;66984;47.404;18.836;2023-03-15T06:03:47;7.92;63.46
77693;SHT31;66984;47.404;18.836;2023-03-15T06:04:50;7.93;63.33
77693;SHT31;66984;47.404;18.836;2023-03-15T06:05:53;7.86;63.42
77693;SHT31;66984;47.404;18.836;2023-03-15T06:06:55;7.88;63.60
77693;SHT31;66984;47.404;18.836;2023-03-15T06:07:58;7.85;63.86
77693;SHT31;66984;47.404;18.836;2023-03-15T06:09:01;7.86;64.00
77693;SHT31;66984;47.404;18.836;2023-03-15T06:10:04;7.91;63.89
77693;SHT31;66984;47.404;18.836;2023-03-15T06:11:07;7.85;63.85
77693;SHT31;66984;47.404;18.836;2023-03-15T06:12:10;7.82;63.93
77693;SHT31;66984;47.404;18.836;2023-03-15T06:13:13;7.83;64.09
77693;SHT31;66984;47.404;18.836;2023-03-15T06:14:18;7.79;64.13
77693;SHT31;66984;47.404;18.836;2023-03-15T06:15:21;7.81;64.23
77693;SHT31;66984;47.404;18.836;2023-03-15T06:16:23;7.75;64.22
77693;SHT31;66984;47.404;18.836;2023-03-15T06:17:26;7.75;64.11
77693;SHT31;66984;47.404;18.836;2023-03-15T06:18:29;7.78;64.33
77693;SHT31;66984;47.404;18.836;2023-03-15T06:19:32;7.77;64.43
77693;SHT31;66984;47.404;18.836;2023-03-15T06:20:39;7.65;64.53
77693;SHT31;66984;47.404;18.836;2023-03-15T06:21:41;7.71;64.66
77693;SHT31;66984;47.404;18.836;2023-03-15T06:22:44;7.67;64.76
77693;SHT31;66984;47.404;18.836;2023-03-15T06:23:47;7.68;64.88
77693;SHT31;66984;47.404;18.836;2023-03-15T06:24:49;7.71;64.97
77693;SHT31;66984;47.404;18.836;2023-03-15T06:25:52;7.77;64.64
77693;SHT31;66984;47.404;18.836;2023-03-15T06:26:55;7.78;64.77
77693;SHT31;66984;47.404;18.836;2023-03-15T06:27:57;7.74;64.70
77693;SHT31;66984;47.404;18.836;2023-03-15T06:29:00;7.77;64.88
77693;SHT31;66984;47.404;18.836;2023-03-15T06:30:03;7.78;64.99
77693;SHT31;66984;47.404;18.836;2023-03-15T06:31:08;7.75;64.90
77693;SHT31;66984;47.404;18.836;2023-03-15T06:32:11;7.81;64.83
77693;SHT31;66984;47.404;18.836;2023-03-15T06:33:13;7.75;64.80
77693;SHT31;66984;47.404;18.836;2023-03-15T06:34:16;7.74;64.89
77693;SHT31;66984;47.404;18.836;2023-03-15T06:35:19;7.72;64.79
77693;SHT31;66984;47.404;18.836;2023-03-15T06:36:21;7.74;64.84
77693;SHT31;66984;47.404;18.836;2023-03-15T06:37:26;7.74;64.83
77693;SHT31;66984;47.404;18.836;2023-03-15T06:38:35;7.77;64.86
77693;SHT31;66984;47.404;18.836;2023-03-15T06:39:39;7.79;64.66
77693;SHT31;66984;47.404;18.836;2023-03-15T06:40:42;7.78;64.59
77693;SHT31;66984;47.404;18.836;2023-03-15T06:41:45;7.82;64.49
77693;SHT31;66984;47.404;18.836;2023-03-15T06:42:48;7.79;64.56
77693;SHT31;66984;47.404;18.836;2023-03-15T06:43:51;7.82;64.75